KBAD/BAD METAR and TAF weather

Enter ICAO airport designator
Station Type Date Time Source
KBAD METAR 2019/06/26 17:56 UTC NOAA

KBAD 261756Z AUTO 17008KT 10SM SCT080 SCT150 BKN200 29/21 A3017 RMK AO2 SLP218 60000 T02850210 10287 20209 58002


Station Type Date Time Source
KBAD Decoded METAR 2019/06/26 17:56 UTC NOAA

Barksdale Air Force Base, LA, United States (KBAD) 32-30N 093-40W
Jun 26, 2019 - 01:56 PM EDT / 2019.06.26 1756 UTC
Wind: from the S (170 degrees) at 9 MPH (8 KT):0
Visibility: 10 mile(s):0
Sky conditions: mostly cloudy
Temperature: 83.3 F (28.5 C)
Dew Point: 69.8 F (21.0 C)
Relative Humidity: 63%
Pressure (altimeter): 30.17 in. Hg (1021 hPa)
Pressure tendency: 0.01 inches (0.2 hPa) lower than three hours ago
ob: KBAD 261756Z AUTO 17008KT 10SM SCT080 SCT150 BKN200 29/21 A3017 RMK AO2 SLP218 60000 T02850210 10287 20209 58002
cycle: 18

Station Type Date Time Source
KBAD TAF 2019/06/26 18:09 UTC NOAA

TAF TAF KBAD 261800Z 2618/2724 16008KT 9999 BKN120 QNH3012INS
BECMG 2714/2715 20007KT 9999 SCT030 BKN250 QNH3011INS TX29/2621Z TN22/2711Z

Example: see airport list